Time;durP1;ratioP1;P1;durP2;ratioP2;P2;SDS_P1;SDS_P2;PMS_P1;PMS_P2;Temp;Humidity;BMP_temperature;BMP_pressure;BME280_temperature;BME280_humidity;BME280_pressure;Samples;Min_cycle;Max_cycle;Signal;HPM_P1;HPM_P2
2021/07/29 00:01:00;;;;;;;21.38;9.95;;;;;;;23.11;60.61;97002.59;5004441;28;20591;-60
2021/07/29 00:03:27;;;;;;;16.58;10.35;;;;;;;;;;5005194;28;20523;-59
2021/07/29 00:05:54;;;;;;;18.17;9.95;;;;;;;23.03;61.18;96994.81;5005840;28;20054;-62
2021/07/29 00:08:21;;;;;;;19.77;10.45;;;;;;;23.06;61.01;96989.00;5004547;28;20081;-60
2021/07/29 00:10:48;;;;;;;15.73;9.73;;;;;;;23.06;60.87;96999.56;5004599;28;20057;-59
2021/07/29 00:13:16;;;;;;;15.68;9.93;;;;;;;22.82;61.01;96978.53;5004263;28;20054;-60
2021/07/29 00:15:43;;;;;;;20.63;10.45;;;;;;;22.71;61.51;96961.13;5004129;28;20076;-59
2021/07/29 00:20:42;;;;;;;21.50;12.13;;;;;;;22.36;63.92;96941.22;5006022;28;20057;-60
2021/07/29 00:23:09;;;;;;;22.23;12.50;;;;;;;22.65;64.99;96991.19;5004284;28;20137;-60
2021/07/29 00:25:35;;;;;;;17.02;13.02;;;;;;;22.18;65.85;96952.25;5004301;28;20144;-60
2021/07/29 00:28:02;;;;;;;19.70;12.80;;;;;;;22.35;66.65;96976.31;5004097;28;20061;-59
2021/07/29 00:30:29;;;;;;;18.30;13.05;;;;;;;21.57;66.72;96867.03;5003749;28;20141;-60
2021/07/29 00:32:56;;;;;;;22.35;13.25;;;;;;;22.33;66.86;96992.94;5005748;28;20068;-61
2021/07/29 00:35:23;;;;;;;23.27;12.93;;;;;;;22.40;66.72;96997.56;5005134;28;20057;-61
2021/07/29 00:37:55;;;;;;;21.90;11.90;;;;;;;22.48;65.13;96993.28;5003713;28;20054;-62
2021/07/29 00:40:22;;;;;;;18.40;10.27;;;;;;;22.49;64.34;96992.81;5004984;28;20108;-60
2021/07/29 00:42:49;;;;;;;22.75;10.45;;;;;;;22.47;63.65;96988.88;5004385;28;20332;-60
2021/07/29 00:45:16;;;;;;;23.52;10.57;;;;;;;22.48;64.06;96986.84;5003769;28;20068;-60
2021/07/29 00:47:46;;;;;;;18.25;10.57;;;;;;;21.55;64.19;96860.22;5005375;28;20041;-60
2021/07/29 00:50:32;;;;;;;16.13;10.45;;;;;;;22.02;64.40;96932.56;5004132;28;20053;-62
2021/07/29 00:52:59;;;;;;;18.80;9.90;;;;;;;21.78;64.31;96896.66;5003886;28;20129;-60
2021/07/29 00:55:26;;;;;;;22.38;10.60;;;;;;;22.10;64.30;96945.25;5003402;28;20054;-60
2021/07/29 00:57:54;;;;;;;17.15;8.75;;;;;;;22.26;64.16;96950.81;5005257;28;20056;-64
2021/07/29 01:00:21;;;;;;;16.20;10.27;;;;;;;22.24;63.89;96936.34;5004985;28;20440;-60
2021/07/29 01:02:47;;;;;;;19.10;10.20;;;;;;;22.28;64.25;96962.44;5003800;28;20435;-62
2021/07/29 01:05:14;;;;;;;20.75;10.65;;;;;;;22.49;64.08;96981.53;5003181;28;20054;-62
2021/07/29 01:07:42;;;;;;;14.65;9.30;;;;;;;22.49;63.93;96977.94;5005169;28;20487;-63
2021/07/29 01:10:09;;;;;;;13.73;9.07;;;;;;;22.30;64.77;96982.53;5005221;28;20054;-59
2021/07/29 01:12:36;;;;;;;20.48;11.57;;;;;;;21.66;67.23;96939.66;5003296;28;20140;-59
2021/07/29 01:15:03;;;;;;;19.45;9.73;;;;;;;22.00;66.35;96974.53;5003902;28;20060;-59
2021/07/29 01:17:32;;;;;;;16.60;9.75;;;;;;;22.06;65.91;96972.78;5005019;28;20237;-60
2021/07/29 01:20:00;;;;;;;17.80;9.98;;;;;;;22.06;65.65;96981.25;5003276;28;20505;-61
2021/07/29 01:22:35;;;;;;;15.38;10.10;;;;;;;21.31;65.16;96842.03;5004910;28;20113;-60
2021/07/29 01:25:04;;;;;;;16.65;10.05;;;;;;;22.13;65.54;96966.91;5003303;28;20058;-60
2021/07/29 01:27:31;;;;;;;22.25;10.40;;;;;;;22.16;65.30;96966.00;5003240;28;20323;-62
2021/07/29 01:30:00;;;;;;;19.52;11.45;;;;;;;21.92;65.04;96921.63;5002751;28;20054;-59
2021/07/29 01:32:28;;;;;;;26.27;12.25;;;;;;;22.01;66.10;96953.56;5002746;28;20520;-60
2021/07/29 01:34:56;;;;;;;15.88;11.82;;;;;;;22.09;65.95;96960.59;5004530;28;20049;-59
2021/07/29 01:37:24;;;;;;;19.25;11.13;;;;;;;22.08;65.89;96959.00;5004739;28;20068;-59
2021/07/29 01:39:52;;;;;;;17.95;9.68;;;;;;;21.76;65.44;96907.59;5004889;28;20057;-58
2021/07/29 01:42:19;;;;;;;22.75;10.13;;;;;;;21.62;65.18;96858.03;5002316;28;20068;-60
2021/07/29 01:44:46;;;;;;;18.27;10.82;;;;;;;22.08;65.77;96956.19;5004471;28;20057;-58
2021/07/29 01:47:12;;;;;;;19.05;10.30;;;;;;;22.07;65.77;96957.44;5002701;28;20054;-59
2021/07/29 01:49:39;;;;;;;14.63;9.68;;;;;;;21.66;65.88;96903.81;5002889;28;20509;-59
2021/07/29 01:52:06;;;;;;;18.40;9.65;;;;;;;22.11;65.63;96952.44;5002499;28;20059;-58
2021/07/29 01:54:33;;;;;;;21.20;10.90;;;;;;;22.16;65.37;97019.63;5002820;28;20050;-59
2021/07/29 01:57:00;;;;;;;18.52;9.65;;;;;;;22.06;65.63;96969.16;5002462;28;20128;-59
2021/07/29 01:59:26;;;;;;;16.15;10.43;;;;;;;21.84;65.83;96940.78;5001969;28;20057;-61
2021/07/29 02:01:53;;;;;;;19.33;9.45;;;;;;;21.65;66.48;96919.16;5002349;28;20057;-59
2021/07/29 02:04:20;;;;;;;15.10;10.55;;;;;;;21.63;66.51;96918.78;5002164;28;20503;-58
2021/07/29 02:06:47;;;;;;;17.35;9.23;;;;;;;21.89;66.31;96951.50;5002374;28;20054;-59
2021/07/29 02:09:14;;;;;;;22.48;9.82;;;;;;;21.65;66.68;96921.97;5004055;28;20448;-61
2021/07/29 02:11:44;;;;;;;20.80;9.48;;;;;;;21.72;66.63;96930.22;5003117;28;20058;-59
2021/07/29 02:14:10;;;;;;;14.10;9.25;;;;;;;21.84;66.68;96949.25;5002404;28;20065;-64
2021/07/29 02:16:40;;;;;;;18.50;10.23;;;;;;;21.83;66.87;96947.66;5002009;28;20433;-57
2021/07/29 02:19:07;;;;;;;18.98;10.65;;;;;;;21.86;66.71;96943.94;5002942;28;20096;-58
2021/07/29 02:21:34;;;;;;;21.63;10.00;;;;;;;21.89;66.52;96957.13;5003918;28;20065;-59
2021/07/29 02:24:01;;;;;;;18.10;9.90;;;;;;;20.86;66.64;96788.50;5002311;28;20050;-57
2021/07/29 02:26:27;;;;;;;13.38;9.60;;;;;;;21.83;66.87;96958.94;5002298;28;20060;-58
2021/07/29 02:28:54;;;;;;;14.93;9.20;;;;;;;21.54;67.08;96924.28;5002944;28;20539;-62
2021/07/29 02:31:21;;;;;;;18.33;10.23;;;;;;;21.77;67.47;96966.34;5003555;28;20491;-58
2021/07/29 02:33:47;;;;;;;18.23;9.57;;;;;;;21.80;66.85;96965.47;5003971;28;20053;-59
2021/07/29 02:36:15;;;;;;;22.35;11.35;;;;;;;21.69;67.72;96973.41;5003319;28;20054;-60
2021/07/29 02:38:41;;;;;;;18.55;11.40;;;;;;;21.27;68.23;96909.75;5002017;28;20065;-60
2021/07/29 02:41:08;;;;;;;19.20;12.20;;;;;;;20.82;72.08;96973.63;5002215;28;20053;-58
2021/07/29 02:43:35;;;;;;;43.67;19.65;;;;;;;20.79;72.42;96969.69;5002659;28;20050;-59
2021/07/29 02:46:01;;;;;;;26.02;13.45;;;;;;;20.76;73.25;96975.41;5001965;28;20058;-58
2021/07/29 02:48:28;;;;;;;24.70;14.23;;;;;;;20.61;73.16;96946.03;5002223;28;20096;-59
2021/07/29 02:50:55;;;;;;;53.38;22.35;;;;;;;20.87;72.59;96975.94;5002055;28;20053;-59
2021/07/29 02:53:25;;;;;;;41.97;18.63;;;;;;;19.75;75.31;96899.72;5002211;28;20049;-57
2021/07/29 02:55:57;;;;;;;45.50;19.25;;;;;;;19.77;76.27;97043.44;5001956;28;20520;-59
2021/07/29 02:58:24;;;;;;;29.42;15.77;;;;;;;20.19;75.73;96963.84;5002120;28;20054;-59
2021/07/29 03:00:52;;;;;;;21.50;13.65;;;;;;;20.41;75.14;96979.03;5001796;28;20053;-62
2021/07/29 03:03:19;;;;;;;52.20;21.02;;;;;;;20.02;76.37;96970.63;5001555;28;20116;-60
2021/07/29 03:05:46;;;;;;;32.17;15.45;;;;;;;19.78;77.57;96955.06;5001898;28;20073;-59
2021/07/29 03:08:13;;;;;;;35.28;16.90;;;;;;;20.16;76.50;96981.59;5003631;28;20058;-59
2021/07/29 03:10:39;;;;;;;23.38;13.45;;;;;;;19.77;75.56;96895.25;5001992;28;20072;-58
2021/07/29 03:13:06;;;;;;;16.77;11.40;;;;;;;20.39;75.62;96984.31;5004560;28;20074;-59
2021/07/29 03:15:33;;;;;;;19.30;11.05;;;;;;;20.54;74.82;96991.22;5006872;28;20058;-58
2021/07/29 03:18:00;;;;;;;16.00;11.52;;;;;;;20.50;73.79;96968.75;5006940;28;20196;-59
2021/07/29 03:20:27;;;;;;;15.68;10.52;;;;;;;20.77;73.12;96991.84;5006799;28;20058;-62
2021/07/29 03:22:53;;;;;;;21.85;11.60;;;;;;;20.81;73.31;97000.22;5006860;28;20049;-59
2021/07/29 03:25:20;;;;;;;18.38;11.32;;;;;;;20.26;73.09;96901.81;5006435;28;20054;-59
2021/07/29 03:27:47;;;;;;;23.65;12.75;;;;;;;20.59;73.05;96949.28;5005545;28;20061;-58
2021/07/29 03:30:14;;;;;;;19.83;12.88;;;;;;;20.55;75.00;96998.44;5005800;28;20085;-58
2021/07/29 03:32:41;;;;;;;28.20;13.57;;;;;;;20.44;75.43;96997.84;5006164;28;20138;-57
2021/07/29 03:35:08;;;;;;;24.13;14.38;;;;;;;20.58;74.74;96998.34;5006802;28;20050;-62
2021/07/29 03:37:35;;;;;;;39.65;14.82;;;;;;;20.75;73.81;96991.50;5006731;28;20058;-61
2021/07/29 03:40:05;;;;;;;42.78;14.98;;;;;;;20.40;73.90;96952.13;5006122;28;20477;-60
2021/07/29 03:42:34;;;;;;;24.05;14.57;;;;;;;20.16;74.71;96947.84;5005086;28;20556;-60
2021/07/29 03:45:02;;;;;;;20.88;14.55;;;;;;;20.54;75.12;96996.84;5006222;28;20049;-58
2021/07/29 03:47:29;;;;;;;32.85;14.57;;;;;;;20.64;74.22;97001.44;5005252;28;20053;-60
2021/07/29 03:49:56;;;;;;;29.55;14.85;;;;;;;20.59;73.93;96999.13;5006796;28;20092;-61
2021/07/29 03:52:23;;;;;;;39.55;14.60;;;;;;;20.75;73.70;97001.97;5004821;28;20060;-60
2021/07/29 03:54:52;;;;;;;30.42;14.50;;;;;;;20.79;73.83;97005.50;5005016;28;20053;-59
2021/07/29 03:57:22;;;;;;;26.33;14.30;;;;;;;20.31;73.67;96932.25;5004627;28;20480;-60
2021/07/29 03:59:49;;;;;;;24.85;14.13;;;;;;;20.81;73.56;96980.50;5004550;28;20074;-59
2021/07/29 04:02:16;;;;;;;30.48;14.50;;;;;;;21.11;72.88;97005.56;5006025;28;20052;-60
2021/07/29 04:04:44;;;;;;;46.25;17.27;;;;;;;20.92;73.51;97006.41;5004744;28;20929;-59
2021/07/29 04:07:11;;;;;;;44.45;17.30;;;;;;;20.79;72.94;96969.69;5005014;28;20061;-59
2021/07/29 04:09:38;;;;;;;70.15;20.77;;;;;;;21.20;72.71;97005.72;5004222;28;20707;-61
2021/07/29 04:12:05;;;;;;;50.70;18.30;;;;;;;21.39;71.31;97002.00;5005059;28;20074;-59
2021/07/29 04:14:33;;;;;;;28.33;13.38;;;;;;;21.72;70.30;97011.97;5004158;28;20057;-59
2021/07/29 04:17:01;;;;;;;21.58;12.55;;;;;;;21.98;68.29;97005.25;5005732;28;20058;-58
2021/07/29 04:19:32;;;;;;;21.58;12.05;;;;;;;20.40;67.67;96746.72;5003899;28;20060;-60
2021/07/29 04:21:59;;;;;;;23.38;11.27;;;;;;;22.17;67.61;97015.59;5003904;28;20089;-59
2021/07/29 04:24:28;;;;;;;20.55;10.52;;;;;;;22.29;66.96;97003.53;5004264;28;20418;-60
2021/07/29 04:26:59;;;;;;;15.07;10.63;;;;;;;22.39;67.14;97001.63;5005310;28;20058;-60
2021/07/29 04:29:27;;;;;;;18.95;10.38;;;;;;;22.00;66.64;96920.94;5010943;28;20068;-60
2021/07/29 04:31:54;;;;;;;18.45;9.60;;;;;;;22.65;65.95;96999.66;5004765;28;20076;-59
2021/07/29 04:34:21;;;;;;;22.48;10.07;;;;;;;22.82;65.15;96995.50;5005016;28;20062;-58
2021/07/29 04:36:48;;;;;;;15.18;10.07;;;;;;;22.31;64.94;96910.75;5004550;28;20050;-60
2021/07/29 04:39:15;;;;;;;14.45;9.43;;;;;;;23.14;64.18;96995.25;5004038;28;20141;-59
2021/07/29 04:41:43;;;;;;;17.83;10.00;;;;;;;23.26;63.93;97002.94;5003690;28;20061;-59
2021/07/29 04:44:12;;;;;;;15.57;9.98;;;;;;;23.11;62.82;96945.28;5005394;28;20081;-59
2021/07/29 04:46:40;;;;;;;18.73;10.32;;;;;;;23.56;62.56;97005.13;5004833;28;20144;-60
2021/07/29 04:49:09;;;;;;;17.00;10.65;;;;;;;23.73;61.69;96998.06;5003778;28;20058;-59
2021/07/29 04:51:36;;;;;;;16.48;9.63;;;;;;;23.86;61.37;96991.13;5004911;28;20066;-60
2021/07/29 04:54:04;;;;;;;22.70;10.13;;;;;;;23.66;60.89;96965.16;5005258;28;20052;-61
2021/07/29 04:56:31;;;;;;;20.85;9.13;;;;;;;24.12;59.88;97000.31;5003604;28;20054;-59
2021/07/29 04:58:58;;;;;;;21.98;9.55;;;;;;;24.30;59.41;97000.44;5003061;28;20046;-59
2021/07/29 05:01:25;;;;;;;16.50;9.38;;;;;;;24.11;59.31;96950.59;5003259;28;20062;-59
2021/07/29 05:03:52;;;;;;;18.40;9.27;;;;;;;24.62;58.65;97002.84;5005426;28;20054;-60
2021/07/29 05:06:19;;;;;;;19.23;9.85;;;;;;;24.56;57.90;96973.53;4989673;28;20526;-62
2021/07/29 05:08:46;;;;;;;24.65;9.60;;;;;;;24.92;57.33;97010.56;4984046;28;20062;-60
2021/07/29 05:11:13;;;;;;;19.00;10.10;;;;;;;25.06;56.89;97010.00;4985004;28;20065;-61
2021/07/29 05:13:40;;;;;;;21.98;10.35;;;;;;;24.86;57.01;96950.09;4984834;28;20071;-60
2021/07/29 05:16:07;;;;;;;16.10;10.15;;;;;;;25.27;55.89;96975.09;4983488;28;20058;-61
2021/07/29 05:18:35;;;;;;;17.35;9.40;;;;;;;25.28;55.37;96965.31;4984169;28;20091;-59
2021/07/29 05:21:03;;;;;;;19.55;10.73;;;;;;;25.79;55.28;97004.53;4984923;28;20058;-60
2021/07/29 05:23:30;;;;;;;16.33;9.73;;;;;;;25.92;54.75;97008.00;4984708;28;20055;-59
2021/07/29 05:25:58;;;;;;;20.05;10.70;;;;;;;26.07;54.54;97009.78;4984674;28;20062;-59
2021/07/29 05:28:25;;;;;;;13.07;9.75;;;;;;;26.12;55.57;97002.66;4983143;28;20156;-60
2021/07/29 05:30:52;;;;;;;21.75;10.98;;;;;;;26.25;55.82;97003.28;4984727;28;20050;-62
2021/07/29 05:33:19;;;;;;;22.40;11.60;;;;;;;26.41;56.08;97005.81;4982823;28;20082;-61
2021/07/29 05:35:46;;;;;;;24.35;10.65;;;;;;;26.45;54.91;97003.56;4982686;28;20070;-60
2021/07/29 05:38:13;;;;;;;15.35;9.70;;;;;;;26.56;53.95;97010.34;4983358;28;20062;-60
2021/07/29 05:40:40;;;;;;;21.17;10.23;;;;;;;26.23;53.66;96949.00;4983165;28;20065;-62
2021/07/29 05:43:07;;;;;;;22.08;10.65;;;;;;;26.80;51.57;97004.78;4989736;28;20045;-59
2021/07/29 05:45:35;;;;;;;21.42;11.55;;;;;;;26.92;51.30;97000.94;5004139;28;20057;-59
2021/07/29 05:48:01;;;;;;;23.60;14.63;;;;;;;27.02;51.07;96999.66;5004260;28;20081;-60
2021/07/29 05:50:28;;;;;;;24.73;13.35;;;;;;;27.14;50.64;96998.63;5002913;28;20057;-61
2021/07/29 05:52:55;;;;;;;17.63;13.77;;;;;;;26.53;50.07;96894.78;5002262;28;20089;-60
2021/07/29 05:55:22;;;;;;;21.95;13.35;;;;;;;27.00;48.46;96925.38;5003290;28;20050;-61
2021/07/29 05:57:49;;;;;;;22.67;13.93;;;;;;;27.37;48.80;96952.41;5002001;28;20046;-63
2021/07/29 06:00:16;;;;;;;24.35;13.00;;;;;;;27.41;49.07;96958.69;5003169;28;20053;-60
2021/07/29 06:02:43;;;;;;;28.40;13.20;;;;;;;27.17;50.61;96966.41;5002087;28;20389;-61
2021/07/29 06:05:10;;;;;;;21.85;13.20;;;;;;;25.91;52.35;96819.06;5002532;28;20111;-60
2021/07/29 06:07:36;;;;;;;23.02;15.50;;;;;;;26.99;51.34;96901.06;5002396;28;20147;-59
2021/07/29 06:10:04;;;;;;;26.08;15.10;;;;;;;27.76;49.82;96988.19;5001773;28;20513;-61
2021/07/29 06:12:31;;;;;;;23.40;15.20;;;;;;;27.57;49.63;96995.28;5001614;28;20587;-61
2021/07/29 06:15:00;;;;;;;22.05;14.75;;;;;;;27.28;49.98;96912.63;5003343;28;20053;-60
2021/07/29 06:17:29;;;;;;;23.58;14.60;;;;;;;27.95;49.76;96981.09;5003454;28;20124;-60
2021/07/29 06:19:57;;;;;;;25.25;15.18;;;;;;;28.15;49.19;96984.09;5003359;28;20057;-60
2021/07/29 06:22:24;;;;;;;22.63;14.57;;;;;;;28.31;49.00;96985.72;5001694;28;20508;-59
2021/07/29 06:24:50;;;;;;;25.92;14.98;;;;;;;28.46;47.09;96985.69;5003324;28;20072;-60
2021/07/29 06:27:17;;;;;;;24.77;15.20;;;;;;;28.22;46.75;96920.25;4987152;28;20153;-62
2021/07/29 06:29:44;;;;;;;22.60;14.27;;;;;;;28.55;47.55;96977.09;4982907;28;20567;-59
2021/07/29 06:32:11;;;;;;;27.10;14.50;;;;;;;28.14;47.01;96897.06;4979121;28;20146;-61
2021/07/29 06:34:38;;;;;;;20.02;12.68;;;;;;;28.18;47.72;96974.56;4990549;28;20125;-64
2021/07/29 06:37:04;;;;;;;17.25;12.85;;;;;;;28.21;47.60;96969.16;4986944;28;20169;-66
2021/07/29 06:39:31;;;;;;;20.45;11.95;;;;;;;28.47;46.67;96930.28;4988752;28;20054;-62
2021/07/29 06:41:58;;;;;;;22.73;12.18;;;;;;;29.00;46.17;96959.47;4988998;28;20137;-64
2021/07/29 06:44:25;;;;;;;23.02;12.32;;;;;;;28.97;44.98;96906.25;4989635;28;20053;-65
2021/07/29 06:46:52;;;;;;;26.02;14.65;;;;;;;29.55;45.65;96963.16;4995284;28;20058;-58
2021/07/29 06:49:19;;;;;;;32.67;13.63;;;;;;;29.59;45.14;96960.91;4994498;28;20054;-59
2021/07/29 06:51:46;;;;;;;18.23;12.27;;;;;;;29.63;44.04;96940.66;4997831;28;20056;-67
2021/07/29 06:54:12;;;;;;;17.98;13.48;;;;;;;28.88;44.49;96897.81;4990383;28;20069;-66
2021/07/29 06:56:39;;;;;;;19.27;11.50;;;;;;;29.79;43.61;96955.22;4995867;28;20046;-61
2021/07/29 06:59:06;;;;;;;17.30;11.82;;;;;;;29.70;43.38;96926.81;5002927;28;20129;-62
2021/07/29 07:01:34;;;;;;;17.58;11.80;;;;;;;29.97;43.25;96946.31;5004234;28;20248;-72
2021/07/29 07:04:02;;;;;;;18.38;12.85;;;;;;;30.23;43.06;96943.53;4991552;28;20094;-62
2021/07/29 07:06:34;;;;;;;13.68;11.05;;;;;;;30.47;41.79;96941.19;4985543;28;20529;-63
2021/07/29 07:09:00;;;;;;;16.70;11.32;;;;;;;30.55;41.52;96937.38;4971132;28;20525;-61
2021/07/29 07:11:27;;;;;;;12.55;10.60;;;;;;;30.20;42.22;96939.59;4987497;28;20061;-60
2021/07/29 07:13:55;;;;;;;22.08;11.40;;;;;;;30.42;40.86;96945.56;4985245;28;20484;-60
2021/07/29 07:16:22;;;;;;;20.50;10.18;;;;;;;30.16;40.72;96876.13;4986788;28;20062;-62
2021/07/29 07:18:49;;;;;;;18.65;10.52;;;;;;;30.58;40.14;96932.72;4986912;28;20144;-60
2021/07/29 07:21:16;;;;;;;19.58;10.35;;;;;;;30.71;40.15;96936.72;4986599;28;20046;-60
2021/07/29 07:23:42;;;;;;;23.35;10.98;;;;;;;30.87;40.51;96918.19;4987056;28;20060;-61
2021/07/29 07:26:14;;;;;;;17.75;10.90;;;;;;;31.15;39.73;96921.22;4986599;28;20410;-61
2021/07/29 07:28:41;;;;;;;22.80;11.13;;;;;;;31.16;39.20;96888.47;4986549;28;20080;-61
2021/07/29 07:31:08;;;;;;;18.02;10.38;;;;;;;30.30;39.65;96789.53;4986089;28;20166;-61
2021/07/29 07:33:35;;;;;;;14.70;10.25;;;;;;;30.72;39.17;96815.31;4995222;28;20509;-65
2021/07/29 07:36:03;;;;;;;22.10;9.43;;;;;;;31.31;39.36;96934.91;4993697;28;20053;-61
2021/07/29 07:38:29;;;;;;;12.68;10.07;;;;;;;31.37;39.59;96927.13;4996870;28;20058;-61
2021/07/29 07:41:05;;;;;;;17.38;10.80;;;;;;;31.14;40.35;96925.41;4988273;28;20085;-59
2021/07/29 07:43:33;;;;;;;19.42;10.65;;;;;;;30.93;40.27;96894.03;4986945;28;20054;-60
2021/07/29 07:46:01;;;;;;;22.27;11.65;;;;;;;30.85;40.49;96881.50;4986537;28;20054;-59
2021/07/29 07:48:28;;;;;;;15.07;9.80;;;;;;;31.38;40.14;96923.00;4987379;28;20500;-59
2021/07/29 07:50:56;;;;;;;18.92;9.82;;;;;;;31.38;39.24;96926.63;4986367;28;20097;-61
2021/07/29 07:53:28;;;;;;;19.90;10.65;;;;;;;31.46;39.51;96901.16;4986542;28;20145;-60
2021/07/29 07:55:57;;;;;;;16.50;10.55;;;;;;;31.55;39.30;96932.44;4985932;28;20085;-64
2021/07/29 07:58:24;;;;;;;14.55;9.45;;;;;;;31.78;38.51;96917.72;4985322;28;20054;-60
2021/07/29 08:00:51;;;;;;;13.43;8.75;;;;;;;31.16;39.41;96919.97;5003737;28;20088;-61
2021/07/29 08:03:19;;;;;;;18.35;9.73;;;;;;;31.45;38.84;96906.09;4999002;28;20550;-61
2021/07/29 08:05:48;;;;;;;20.10;9.88;;;;;;;31.68;38.44;96919.22;5004258;28;20077;-63
2021/07/29 08:08:15;;;;;;;15.55;9.13;;;;;;;31.88;37.78;96910.50;5006113;28;20050;-61
2021/07/29 08:10:42;;;;;;;14.88;8.50;;;;;;;30.68;37.20;96691.75;5006026;28;20081;-61
2021/07/29 08:13:09;;;;;;;19.25;9.40;;;;;;;31.90;37.95;96901.38;5005149;28;20160;-61
2021/07/29 08:15:36;;;;;;;21.92;9.75;;;;;;;32.09;37.72;96905.34;5005285;28;20053;-61
2021/07/29 08:18:03;;;;;;;14.73;9.13;;;;;;;32.20;36.36;96899.66;4995163;28;20046;-62
2021/07/29 08:20:31;;;;;;;15.35;8.68;;;;;;;32.19;36.69;96889.47;4995904;28;20070;-64
2021/07/29 08:22:59;;;;;;;17.70;9.27;;;;;;;32.56;36.22;96881.47;4997191;28;20049;-62
2021/07/29 08:25:27;;;;;;;11.13;8.90;;;;;;;32.29;35.98;96893.66;4985627;28;20050;-63
2021/07/29 08:27:54;;;;;;;17.38;9.45;;;;;;;32.19;36.63;96883.72;4992256;28;20052;-60
2021/07/29 08:30:23;;;;;;;19.98;9.98;;;;;;;32.35;36.54;96857.16;4985418;28;20069;-63
2021/07/29 08:32:53;;;;;;;18.75;9.43;;;;;;;32.75;36.21;96879.66;4986524;28;20054;-60
2021/07/29 08:35:22;;;;;;;15.07;8.93;;;;;;;33.20;35.49;96875.44;4985468;28;20065;-60
2021/07/29 08:37:51;;;;;;;13.38;8.73;;;;;;;32.78;34.82;96745.78;4982175;28;20141;-64
2021/07/29 08:40:20;;;;;;;15.32;8.52;;;;;;;33.49;34.45;96869.13;4983450;28;20054;-64
2021/07/29 08:42:48;;;;;;;21.55;9.65;;;;;;;33.62;34.35;96868.53;4984459;28;20069;-65
2021/07/29 08:45:16;;;;;;;16.13;9.45;;;;;;;33.19;34.93;96842.28;4984015;28;20054;-59
2021/07/29 08:47:48;;;;;;;13.82;9.13;;;;;;;33.27;35.20;96863.41;4982480;28;20177;-61
2021/07/29 08:50:17;;;;;;;17.98;8.80;;;;;;;33.37;34.93;96867.53;4983602;28;20060;-59
2021/07/29 08:52:44;;;;;;;19.02;9.18;;;;;;;33.60;35.13;96863.31;4982884;28;20140;-61
2021/07/29 08:55:12;;;;;;;16.10;10.60;;;;;;;33.66;34.72;96860.41;4985048;28;20529;-62
2021/07/29 08:57:42;;;;;;;13.25;9.77;;;;;;;33.75;34.62;96863.78;4985729;28;20058;-60
2021/07/29 09:00:14;;;;;;;16.73;9.27;;;;;;;33.88;34.20;96853.78;4997519;28;20148;-58
2021/07/29 09:02:42;;;;;;;19.77;8.90;;;;;;;34.03;34.52;96854.25;5003578;28;20465;-58
2021/07/29 09:05:15;;;;;;;15.82;9.77;;;;;;;34.16;34.51;96860.19;5004973;28;20512;-62
2021/07/29 09:07:45;;;;;;;18.20;9.25;;;;;;;34.27;33.57;96857.25;5004588;28;20527;-60
2021/07/29 09:10:19;;;;;;;16.70;10.23;;;;;;;34.43;33.99;96847.75;5004760;28;20519;-60
2021/07/29 09:13:06;;;;;;;11.80;9.48;;;;;;;34.61;33.68;96852.81;5004184;28;20061;-59
2021/07/29 09:15:33;;;;;;;13.10;9.27;;;;;;;34.36;33.34;96784.97;5003406;28;20054;-60
2021/07/29 09:18:00;;;;;;;18.10;9.98;;;;;;;34.73;33.64;96837.03;5004660;28;20317;-60
2021/07/29 09:20:27;;;;;;;19.95;9.55;;;;;;;34.90;33.71;96834.81;5004516;28;20050;-60
2021/07/29 09:22:54;;;;;;;18.17;9.73;;;;;;;34.84;33.07;96837.69;5004505;28;20058;-59
2021/07/29 09:25:26;;;;;;;13.75;9.35;;;;;;;34.96;33.22;96821.13;4996251;28;20050;-62
2021/07/29 09:27:53;;;;;;;21.20;9.35;;;;;;;35.16;32.40;96829.28;4995835;28;20132;-64
2021/07/29 09:30:28;;;;;;;17.85;9.48;;;;;;;35.33;32.66;96821.22;5004220;28;20060;-65
2021/07/29 09:33:05;;;;;;;16.15;10.27;;;;;;;35.08;32.97;96829.09;5004566;28;20405;-64
2021/07/29 09:35:37;;;;;;;18.88;10.13;;;;;;;35.42;33.12;96817.22;5004682;28;20545;-65
2021/07/29 09:38:09;;;;;;;17.35;9.18;;;;;;;35.84;32.34;96825.88;5002769;28;20046;-64
2021/07/29 09:40:53;;;;;;;17.25;9.98;;;;;;;35.94;32.07;96821.28;5004069;28;20077;-64
2021/07/29 09:43:24;;;;;;;17.88;10.63;;;;;;;36.04;31.87;96822.44;5002579;28;20054;-62
2021/07/29 09:45:56;;;;;;;13.65;10.32;;;;;;;36.34;31.28;96814.41;5003988;28;20054;-65
2021/07/29 09:48:23;;;;;;;19.48;11.10;;;;;;;35.98;31.29;96781.38;5002754;28;20058;-64
2021/07/29 09:50:55;;;;;;;15.82;10.02;;;;;;;36.48;31.80;96816.00;5003547;28;20545;-63
2021/07/29 09:53:25;;;;;;;18.58;11.15;;;;;;;36.70;30.68;96808.31;5003738;28;20061;-63
2021/07/29 09:55:52;;;;;;;20.98;14.02;;;;;;;36.33;31.49;96804.19;5004033;28;20444;-64
2021/07/29 09:58:19;;;;;;;59.60;30.13;;;;;;;36.44;31.22;96798.25;5002501;28;20053;-61
2021/07/29 10:00:45;;;;;;;22.00;11.35;;;;;;;36.55;31.31;96796.53;5001697;28;20049;-63
2021/07/29 10:03:15;;;;;;;18.33;9.68;;;;;;;36.83;30.38;96799.72;5004119;28;20060;-64
2021/07/29 10:05:51;;;;;;;17.80;9.85;;;;;;;36.55;30.80;96808.06;5003364;28;20064;-63
2021/07/29 10:08:34;;;;;;;13.98;9.63;;;;;;;36.68;30.47;96799.41;5004156;28;20062;-63
2021/07/29 10:11:07;;;;;;;19.10;10.27;;;;;;;37.00;30.43;96794.41;5003665;28;20141;-64
2021/07/29 10:13:35;;;;;;;15.45;9.80;;;;;;;37.27;30.02;96793.13;5001919;28;20140;-63
2021/07/29 10:16:03;;;;;;;16.60;10.00;;;;;;;37.28;29.13;96788.88;5003987;28;20065;-64
2021/07/29 10:18:52;;;;;;;17.88;8.98;;;;;;;37.53;29.25;96776.53;5004093;28;20050;-62
2021/07/29 10:21:24;;;;;;;17.02;9.77;;;;;;;37.82;28.29;96771.72;5002908;28;20456;-64
2021/07/29 10:23:56;;;;;;;18.98;8.98;;;;;;;37.92;28.34;96772.81;5003353;28;20071;-64
2021/07/29 10:26:23;;;;;;;27.40;9.65;;;;;;;38.06;28.28;96765.66;5003712;28;20061;-65
2021/07/29 10:28:51;;;;;;;25.05;10.80;;;;;;;37.97;28.47;96756.69;5002033;28;20049;-63
2021/07/29 10:31:19;;;;;;;19.08;10.43;;;;;;;38.08;27.77;96765.88;5003451;28;20092;-64
2021/07/29 10:33:48;;;;;;;20.00;12.13;;;;;;;38.32;27.94;96759.78;5003242;28;20080;-64
2021/07/29 10:36:45;;;;;;;20.42;11.25;;;;;;;38.72;26.17;96764.06;5003801;28;20108;-64
2021/07/29 10:39:13;;;;;;;22.48;10.85;;;;;;;38.99;25.81;96768.34;5003696;28;20149;-64
2021/07/29 10:41:44;;;;;;;23.17;10.05;;;;;;;39.07;24.40;96737.31;5003099;28;20057;-64
2021/07/29 10:44:32;;;;;;;20.38;10.20;;;;;;;39.30;23.62;96751.94;5003692;28;20045;-64
2021/07/29 10:47:14;;;;;;;24.20;10.13;;;;;;;39.55;24.62;96752.31;5003313;28;20066;-64
2021/07/29 10:49:44;;;;;;;28.30;13.73;;;;;;;39.70;24.34;96735.72;5001722;28;20061;-63
2021/07/29 10:52:11;;;;;;;23.42;10.52;;;;;;;39.62;24.32;96737.81;4997989;28;20508;-62
2021/07/29 10:54:40;;;;;;;25.92;10.80;;;;;;;39.12;24.48;96747.19;5001654;28;20363;-59
2021/07/29 10:57:09;;;;;;;25.90;11.13;;;;;;;38.18;25.36;96726.44;4999579;28;20041;-61
2021/07/29 10:59:36;;;;;;;20.90;10.82;;;;;;;38.86;24.87;96724.94;4988985;28;20567;-59
2021/07/29 11:02:07;;;;;;;19.45;10.57;;;;;;;38.91;24.59;96741.41;4997416;28;20054;-61
2021/07/29 11:04:53;;;;;;;20.98;10.07;;;;;;;38.20;25.00;96735.34;4984369;28;20058;-62
2021/07/29 11:07:20;;;;;;;23.80;10.80;;;;;;;38.49;24.34;96722.50;5005820;28;20053;-63
2021/07/29 11:09:47;;;;;;;27.38;11.07;;;;;;;38.74;24.42;96738.19;4986434;28;20050;-66
2021/07/29 11:12:16;;;;;;;22.58;9.25;;;;;;;38.42;24.76;96693.47;4981930;28;20123;-59
2021/07/29 11:14:43;;;;;;;19.92;10.15;;;;;;;38.79;24.73;96734.34;4983458;28;20229;-63
2021/07/29 11:17:10;;;;;;;24.38;10.35;;;;;;;38.76;25.22;96665.97;4983697;28;20054;-62
2021/07/29 11:19:48;;;;;;;25.70;11.63;;;;;;;39.49;23.17;96726.34;4990746;28;20433;-58
2021/07/29 11:22:16;;;;;;;27.52;11.07;;;;;;;39.58;23.88;96722.16;4990269;28;20049;-64
2021/07/29 11:24:43;;;;;;;28.48;10.10;;;;;;;39.74;24.09;96729.56;4987850;28;20145;-62
2021/07/29 11:27:17;;;;;;;20.27;9.85;;;;;;;39.24;24.14;96675.94;5010537;28;20057;-64